createdAt,value
2019-05-11T00:00:12.658Z,101297.58
2019-05-11T00:02:43.573Z,101299.97
2019-05-11T00:05:23.387Z,101301.19
2019-05-11T00:07:53.125Z,101298.00
2019-05-11T00:10:23.829Z,101296.59
2019-05-11T00:12:55.348Z,101293.21
2019-05-11T00:15:39.024Z,101294.05
2019-05-11T00:18:08.733Z,101296.25
2019-05-11T00:20:52.647Z,101291.47
2019-05-11T00:23:39.200Z,101291.62
2019-05-11T00:26:10.663Z,101289.69
2019-05-11T00:28:40.462Z,101291.34
2019-05-11T00:31:16.843Z,101292.75
2019-05-11T00:33:55.000Z,101295.48
2019-05-11T00:36:29.023Z,101297.23
2019-05-11T00:38:59.523Z,101295.22
2019-05-11T00:41:33.219Z,101294.30
2019-05-11T00:44:11.185Z,101291.33
2019-05-11T00:46:42.150Z,101290.53
2019-05-11T00:49:13.557Z,101285.81
2019-05-11T00:51:43.038Z,101288.05
2019-05-11T00:54:31.052Z,101291.66
2019-05-11T00:57:00.521Z,101283.67
2019-05-11T00:59:29.997Z,101291.61
2019-05-11T01:02:08.701Z,101285.78
2019-05-11T01:04:38.207Z,101278.69
2019-05-11T01:07:10.801Z,101278.30
2019-05-11T01:09:43.176Z,101276.03
2019-05-11T01:12:12.841Z,101283.12
2019-05-11T01:14:42.349Z,101276.97
2019-05-11T01:17:14.571Z,101271.66
2019-05-11T01:19:43.987Z,101272.30
2019-05-11T01:22:14.657Z,101268.70
2019-05-11T01:24:56.061Z,101266.69
2019-05-11T01:27:27.523Z,101270.28
2019-05-11T01:30:01.495Z,101271.05
2019-05-11T01:32:30.879Z,101271.66
2019-05-11T01:35:03.335Z,101270.39
2019-05-11T01:37:33.222Z,101270.92
2019-05-11T01:40:20.547Z,101271.41
2019-05-11T01:43:11.001Z,101274.17
2019-05-11T01:45:40.507Z,101277.77
2019-05-11T01:48:12.406Z,101278.22
2019-05-11T01:50:42.046Z,101286.25
2019-05-11T01:53:12.560Z,101280.06
2019-05-11T01:55:42.073Z,101274.20
2019-05-11T01:58:23.346Z,101273.16
2019-05-11T02:00:58.844Z,101273.88
2019-05-11T02:03:32.617Z,101274.76
2019-05-11T02:06:03.179Z,101268.05
2019-05-11T02:08:32.740Z,101269.55
2019-05-11T02:11:15.358Z,101266.97
2019-05-11T02:13:52.841Z,101264.49
2019-05-11T02:16:29.997Z,101263.16
2019-05-11T02:18:59.488Z,101258.00
2019-05-11T02:21:31.472Z,101255.13
2019-05-11T02:24:01.420Z,101259.63
2019-05-11T02:26:32.877Z,101265.88
2019-05-11T02:29:22.778Z,101268.84
2019-05-11T02:32:13.134Z,101263.96
2019-05-11T02:34:44.648Z,101266.41
2019-05-11T02:37:22.760Z,101269.66
2019-05-11T02:39:52.824Z,101276.92
2019-05-11T02:42:28.164Z,101280.06
2019-05-11T02:45:34.750Z,101279.16
2019-05-11T02:48:04.170Z,101278.36
2019-05-11T02:50:37.876Z,101274.31
2019-05-11T02:53:08.271Z,101282.13
2019-05-11T02:55:39.186Z,101291.56
2019-05-11T02:58:12.747Z,101288.44
2019-05-11T03:00:43.953Z,101288.38
2019-05-11T03:03:15.365Z,101281.28
2019-05-11T03:05:53.338Z,101285.13
2019-05-11T03:08:29.911Z,101286.06
2019-05-11T03:11:00.801Z,101294.42
2019-05-11T03:13:34.582Z,101288.10
2019-05-11T03:16:05.974Z,101286.14
2019-05-11T03:18:36.546Z,101276.78
2019-05-11T03:21:07.750Z,101283.38
2019-05-11T03:23:40.583Z,101280.20
2019-05-11T03:26:11.132Z,101279.96
2019-05-11T03:28:44.409Z,101284.54
2019-05-11T03:31:17.610Z,101283.00
2019-05-11T03:33:47.203Z,101286.32
2019-05-11T03:36:18.618Z,101294.07
2019-05-11T03:39:07.461Z,101296.89
2019-05-11T03:41:46.812Z,101294.03
2019-05-11T03:44:24.510Z,101297.41
2019-05-11T03:46:54.973Z,101298.97
2019-05-11T03:49:24.526Z,101296.70
2019-05-11T03:51:55.940Z,101303.47
2019-05-11T03:54:25.645Z,101302.22
2019-05-11T03:57:01.431Z,101305.75
2019-05-11T03:59:39.814Z,101306.06
2019-05-11T04:02:15.220Z,101305.16
2019-05-11T04:04:46.456Z,101317.77
2019-05-11T04:07:18.677Z,101313.04
2019-05-11T04:09:53.146Z,101316.08
2019-05-11T04:12:34.696Z,101322.34
2019-05-11T04:15:12.959Z,101328.08
2019-05-11T04:17:42.462Z,101335.22
2019-05-11T04:20:15.073Z,101339.13
2019-05-11T04:22:59.053Z,101337.63
2019-05-11T04:25:29.868Z,101333.75
2019-05-11T04:28:06.422Z,101335.81
2019-05-11T04:30:38.702Z,101337.25
2019-05-11T04:33:11.975Z,101343.02
2019-05-11T04:35:43.382Z,101339.97
2019-05-11T04:38:28.592Z,101334.72
2019-05-11T04:41:01.091Z,101331.17
2019-05-11T04:43:39.182Z,101334.22
2019-05-11T04:46:16.886Z,101329.23
2019-05-11T04:48:46.416Z,101324.57
2019-05-11T04:51:15.921Z,101322.08
2019-05-11T04:53:45.556Z,101326.09
2019-05-11T04:56:16.865Z,101324.59
2019-05-11T04:58:48.829Z,101328.31
2019-05-11T05:01:18.739Z,101334.96
2019-05-11T05:03:54.239Z,101331.95
2019-05-11T05:06:24.545Z,101337.00
2019-05-11T05:08:58.299Z,101343.91
2019-05-11T05:11:30.741Z,101343.37
2019-05-11T05:14:01.886Z,101341.80
2019-05-11T05:16:31.678Z,101341.45
2019-05-11T05:21:48.945Z,101346.30
2019-05-11T05:24:19.702Z,101345.14
2019-05-11T05:26:52.574Z,101349.16
2019-05-11T05:29:22.164Z,101348.80
2019-05-11T05:31:54.178Z,101351.48
2019-05-11T05:34:23.666Z,101345.98
2019-05-11T05:36:55.194Z,101347.75
2019-05-11T05:39:24.823Z,101351.92
2019-05-11T05:41:57.294Z,101353.80
2019-05-11T05:45:07.172Z,101348.52
2019-05-11T05:47:57.037Z,101347.11
2019-05-11T05:50:31.411Z,101343.98
2019-05-11T05:53:02.091Z,101357.22
2019-05-11T05:55:33.207Z,101370.62
2019-05-11T05:58:04.411Z,101374.87
2019-05-11T06:00:34.973Z,101371.66
2019-05-11T06:03:06.208Z,101371.98
2019-05-11T06:09:08.331Z,101377.80
2019-05-11T06:11:37.748Z,101382.18
2019-05-11T06:14:07.675Z,101386.11
2019-05-11T06:16:40.442Z,101390.33
2019-05-11T06:19:12.355Z,101390.33
2019-05-11T06:21:42.027Z,101391.59
2019-05-11T06:24:11.853Z,101390.80
2019-05-11T06:26:41.873Z,101385.71
2019-05-11T06:29:21.269Z,101391.75
2019-05-11T06:31:48.496Z,101393.48
2019-05-11T06:34:19.300Z,101391.70
2019-05-11T06:36:50.547Z,101394.80
2019-05-11T06:39:21.727Z,101395.27
2019-05-11T06:41:52.880Z,101393.95
2019-05-11T06:44:22.365Z,101386.22
2019-05-11T06:46:55.518Z,101388.34
2019-05-11T06:49:25.130Z,101378.49
2019-05-11T06:51:54.725Z,101387.34
2019-05-11T06:54:25.648Z,101378.50
2019-05-11T06:56:55.030Z,101382.48
2019-05-11T06:59:24.454Z,101384.14
2019-05-11T07:01:56.458Z,101380.86
2019-05-11T07:04:27.056Z,101378.16
2019-05-11T07:06:56.477Z,101379.86
2019-05-11T07:09:28.235Z,101378.36
2019-05-11T07:11:57.815Z,101375.67
2019-05-11T07:14:29.172Z,101379.00
2019-05-11T07:16:58.725Z,101385.83
2019-05-11T07:19:29.955Z,101385.36
2019-05-11T07:21:59.473Z,101382.83
2019-05-11T07:24:30.991Z,101385.69
2019-05-11T07:27:00.499Z,101392.81
2019-05-11T07:29:30.003Z,101392.38
2019-05-11T07:32:06.235Z,101385.91
2019-05-11T07:34:31.811Z,101380.84
2019-05-11T07:37:01.693Z,101380.64
2019-05-11T07:39:31.232Z,101380.63
2019-05-11T07:42:00.843Z,101381.69
2019-05-11T07:44:37.828Z,101381.84
2019-05-11T07:47:04.358Z,101376.27
2019-05-11T07:49:38.201Z,101376.07
2019-05-11T07:52:10.739Z,101373.53
2019-05-11T07:54:40.247Z,101385.77
2019-05-11T07:57:09.933Z,101380.06
2019-05-11T07:59:40.944Z,101384.80
2019-05-11T08:02:10.722Z,101386.45
2019-05-11T08:04:40.210Z,101385.22
2019-05-11T08:07:11.125Z,101384.20
2019-05-11T08:09:42.415Z,101385.55
2019-05-11T08:12:11.856Z,101389.94
2019-05-11T08:14:56.453Z,101379.31
2019-05-11T08:17:12.675Z,101377.53
2019-05-11T08:19:42.192Z,101379.51
2019-05-11T08:22:13.260Z,101378.22
2019-05-11T08:24:42.913Z,101384.73
2019-05-11T08:27:14.500Z,101383.22
2019-05-11T08:29:48.570Z,101388.19
2019-05-11T08:32:19.304Z,101378.08
2019-05-11T08:34:49.149Z,101374.06
2019-05-11T08:37:19.010Z,101370.02
2019-05-11T08:39:49.073Z,101376.05
2019-05-11T08:42:19.718Z,101380.08
2019-05-11T08:44:49.360Z,101378.25
2019-05-11T08:47:21.924Z,101380.78
2019-05-11T08:49:52.659Z,101384.05
2019-05-11T08:52:22.089Z,101384.41
2019-05-11T08:54:51.974Z,101382.85
2019-05-11T08:57:23.103Z,101385.60
2019-05-11T08:59:55.079Z,101390.20
2019-05-11T09:02:27.799Z,101392.08
2019-05-11T09:04:58.877Z,101386.48
2019-05-11T09:07:28.569Z,101393.13
2019-05-11T09:09:58.702Z,101388.94
2019-05-11T09:12:31.054Z,101392.91
2019-05-11T09:15:00.666Z,101389.01
2019-05-11T09:17:32.299Z,101389.97
2019-05-11T09:20:01.699Z,101382.80
2019-05-11T09:22:31.104Z,101390.32
2019-05-11T09:25:00.624Z,101400.45
2019-05-11T09:27:31.182Z,101397.22
2019-05-11T09:30:00.608Z,101398.75
2019-05-11T09:32:30.487Z,101400.53
2019-05-11T09:34:59.951Z,101394.50
2019-05-11T09:37:29.353Z,101392.71
2019-05-11T09:39:58.851Z,101400.36
2019-05-11T09:42:31.898Z,101403.17
2019-05-11T09:45:01.403Z,101400.63
2019-05-11T09:47:31.129Z,101407.33
2019-05-11T09:50:00.577Z,101402.86
2019-05-11T09:52:32.677Z,101412.19
2019-05-11T09:55:04.206Z,101414.41
2019-05-11T09:57:37.528Z,101412.51
2019-05-11T10:00:08.753Z,101410.34
2019-05-11T10:02:39.681Z,101411.16
2019-05-11T10:05:12.749Z,101415.50
2019-05-11T10:07:42.288Z,101414.55
2019-05-11T10:10:13.353Z,101417.63
2019-05-11T10:12:43.966Z,101417.02
2019-05-11T10:15:15.210Z,101414.34
2019-05-11T10:17:48.310Z,101420.73
2019-05-11T10:20:20.118Z,101420.05
2019-05-11T10:22:51.114Z,101423.63
2019-05-11T10:25:23.736Z,101421.92
2019-05-11T10:27:53.195Z,101420.87
2019-05-11T10:30:23.972Z,101423.06
2019-05-11T10:32:53.712Z,101425.53
2019-05-11T10:35:24.928Z,101424.34
2019-05-11T10:37:54.406Z,101424.20
2019-05-11T10:40:28.133Z,101428.84
2019-05-11T10:42:58.965Z,101434.88
2019-05-11T10:45:29.195Z,101445.78
2019-05-11T10:48:01.182Z,101433.87
2019-05-11T10:50:30.619Z,101431.18
2019-05-11T10:53:01.121Z,101421.72
2019-05-11T10:55:30.695Z,101429.94
2019-05-11T10:58:03.733Z,101417.41
2019-05-11T11:00:34.249Z,101426.02
2019-05-11T11:03:05.519Z,101429.61
2019-05-11T11:05:34.965Z,101429.09
2019-05-11T11:08:04.541Z,101428.00
2019-05-11T11:10:34.283Z,101423.78
2019-05-11T11:13:03.919Z,101423.78
2019-05-11T11:15:33.761Z,101426.58
2019-05-11T11:18:05.415Z,101415.79
2019-05-11T11:20:38.442Z,101421.34
2019-05-11T11:23:08.833Z,101430.19
2019-05-11T11:25:39.654Z,101424.67
2019-05-11T11:28:09.068Z,101426.81
2019-05-11T11:30:38.418Z,101420.55
2019-05-11T11:33:08.109Z,101423.70
2019-05-11T11:35:38.507Z,101423.08
2019-05-11T11:38:08.685Z,101426.58
2019-05-11T11:40:38.826Z,101425.44
2019-05-11T11:43:09.639Z,101427.72
2019-05-11T11:45:40.349Z,101428.09
2019-05-11T11:48:13.639Z,101430.19
2019-05-11T11:50:43.532Z,101431.82
2019-05-11T11:53:13.949Z,101440.77
2019-05-11T11:55:43.407Z,101436.05
2019-05-11T11:58:12.876Z,101424.47
2019-05-11T12:00:42.421Z,101429.33
2019-05-11T12:03:13.668Z,101435.16
2019-05-11T12:05:44.889Z,101438.80
2019-05-11T12:08:14.428Z,101440.13
2019-05-11T12:10:48.301Z,101436.08
2019-05-11T12:13:20.503Z,101436.27
2019-05-11T12:15:50.135Z,101441.30
2019-05-11T12:18:19.947Z,101441.84
2019-05-11T12:20:49.386Z,101443.81
2019-05-11T12:23:18.891Z,101453.98
2019-05-11T12:25:49.452Z,101457.30
2019-05-11T12:28:20.664Z,101452.88
2019-05-11T12:30:50.149Z,101459.97
2019-05-11T12:33:21.206Z,101458.19
2019-05-11T12:35:50.640Z,101451.09
2019-05-11T12:38:23.314Z,101452.75
2019-05-11T12:40:52.903Z,101449.84
2019-05-11T12:43:23.412Z,101452.21
2019-05-11T12:45:53.015Z,101451.44
2019-05-11T12:48:22.663Z,101457.13
2019-05-11T12:50:53.853Z,101451.75
2019-05-11T12:53:23.377Z,101468.12
2019-05-11T12:55:52.838Z,101468.23
2019-05-11T12:58:22.261Z,101469.83
2019-05-11T13:00:52.154Z,101462.28
2019-05-11T13:03:22.252Z,101466.63
2019-05-11T13:05:52.215Z,101460.80
2019-05-11T13:08:24.127Z,101467.89
2019-05-11T13:10:55.138Z,101473.17
2019-05-11T13:13:24.555Z,101465.73
2019-05-11T13:15:55.103Z,101476.17
2019-05-11T13:18:24.667Z,101476.16
2019-05-11T13:20:55.382Z,101482.70
2019-05-11T13:23:25.069Z,101492.62
2019-05-11T13:25:54.881Z,101500.09
2019-05-11T13:28:24.499Z,101499.05
2019-05-11T13:30:53.910Z,101495.45
2019-05-11T13:33:23.382Z,101493.34
2019-05-11T13:35:52.840Z,101491.88
2019-05-11T13:38:22.272Z,101494.89
2019-05-11T13:40:52.344Z,101492.34
2019-05-11T13:43:22.399Z,101481.16
2019-05-11T13:45:52.493Z,101501.75
2019-05-11T13:48:23.640Z,101496.61
2019-05-11T13:50:53.065Z,101492.58
2019-05-11T13:53:24.293Z,101498.29
2019-05-11T13:55:53.880Z,101509.19
2019-05-11T13:58:27.626Z,101503.70
2019-05-11T14:00:58.516Z,101495.39
2019-05-11T14:03:28.469Z,101501.98
2019-05-11T14:05:58.999Z,101498.59
2019-05-11T14:08:30.241Z,101502.61
2019-05-11T14:11:01.806Z,101494.94
2019-05-11T14:13:31.443Z,101507.78
2019-05-11T14:16:00.930Z,101512.00
2019-05-11T14:18:30.796Z,101511.75
2019-05-11T14:21:00.244Z,101523.36
2019-05-11T14:23:31.564Z,101528.61
2019-05-11T14:26:01.398Z,101525.31
2019-05-11T14:28:30.882Z,101539.19
2019-05-11T14:31:00.363Z,101533.45
2019-05-11T14:33:29.835Z,101526.82
2019-05-11T14:35:59.301Z,101542.30
2019-05-11T14:38:29.047Z,101542.86
2019-05-11T14:40:58.923Z,101540.50
2019-05-11T14:43:28.342Z,101543.61
2019-05-11T14:45:59.024Z,101546.80
2019-05-11T14:48:30.240Z,101549.88
2019-05-11T14:50:59.826Z,101552.43
2019-05-11T14:53:29.261Z,101562.78
2019-05-11T14:55:58.719Z,101572.66
2019-05-11T14:58:28.174Z,101575.41
2019-05-11T15:00:58.348Z,101581.22
2019-05-11T15:03:28.876Z,101586.05
2019-05-11T15:05:58.403Z,101578.20
2019-05-11T15:08:28.622Z,101579.05
2019-05-11T15:10:58.308Z,101593.22
2019-05-11T15:13:28.782Z,101593.90
2019-05-11T15:15:58.721Z,101598.73
2019-05-11T15:18:37.916Z,101590.38
2019-05-11T15:20:59.397Z,101594.22
2019-05-11T15:23:28.806Z,101604.35
2019-05-11T15:25:58.789Z,101605.50
2019-05-11T15:28:28.591Z,101604.55
2019-05-11T15:30:58.763Z,101610.53
2019-05-11T15:33:28.610Z,101610.29
2019-05-11T15:35:58.406Z,101616.43
2019-05-11T15:38:28.533Z,101612.47
2019-05-11T15:41:00.837Z,101621.89
2019-05-11T15:43:31.283Z,101625.41
2019-05-11T15:46:00.807Z,101629.64
2019-05-11T15:48:30.379Z,101624.41
2019-05-11T15:50:59.785Z,101631.88
2019-05-11T15:53:29.200Z,101625.84
2019-05-11T15:55:59.859Z,101633.97
2019-05-11T15:58:29.512Z,101642.31
2019-05-11T16:00:58.994Z,101642.31
2019-05-11T16:03:28.638Z,101651.00
2019-05-11T16:05:58.360Z,101651.66
2019-05-11T16:08:28.334Z,101653.43
2019-05-11T16:10:57.949Z,101659.09
2019-05-11T16:13:28.514Z,101660.04
2019-05-11T16:15:59.138Z,101665.38
2019-05-11T16:18:28.687Z,101668.17
2019-05-11T16:20:58.377Z,101669.16
2019-05-11T16:23:28.370Z,101670.35
2019-05-11T16:25:58.241Z,101663.44
2019-05-11T16:28:30.660Z,101672.02
2019-05-11T16:30:58.912Z,101668.36
2019-05-11T16:33:28.459Z,101674.98
2019-05-11T16:36:00.751Z,101677.55
2019-05-11T16:38:29.149Z,101687.95
2019-05-11T16:40:58.923Z,101687.95
2019-05-11T16:43:28.324Z,101691.48
2019-05-11T16:45:58.034Z,101691.48
2019-05-11T16:48:27.761Z,101697.62
2019-05-11T16:50:57.980Z,101701.82
2019-05-11T16:53:28.478Z,101701.71
2019-05-11T16:55:58.166Z,101705.21
2019-05-11T16:58:27.955Z,101709.02
2019-05-11T17:00:58.210Z,101710.37
2019-05-11T17:03:28.120Z,101712.47
2019-05-11T17:05:58.864Z,101708.02
2019-05-11T17:08:28.707Z,101717.38
2019-05-11T17:10:59.435Z,101718.25
2019-05-11T17:13:29.121Z,101723.27
2019-05-11T17:15:58.563Z,101728.94
2019-05-11T17:18:28.563Z,101725.81
2019-05-11T17:20:58.653Z,101734.98
2019-05-11T17:23:30.770Z,101738.36
2019-05-11T17:25:59.334Z,101749.72
2019-05-11T17:28:28.734Z,101756.73
2019-05-11T17:30:59.787Z,101751.83
2019-05-11T17:33:29.306Z,101754.30
2019-05-11T17:35:58.852Z,101763.53
2019-05-11T17:38:28.318Z,101757.39
2019-05-11T17:40:57.999Z,101766.44
2019-05-11T17:43:28.049Z,101771.41
2019-05-11T17:45:58.454Z,101772.68
2019-05-11T17:48:28.424Z,101768.20
2019-05-11T17:50:58.202Z,101777.73
2019-05-11T17:53:28.628Z,101778.41
2019-05-11T17:55:59.073Z,101781.94
2019-05-11T17:58:28.490Z,101788.57
2019-05-11T18:00:58.992Z,101791.66
2019-05-11T18:03:28.634Z,101801.55
2019-05-11T18:05:58.864Z,101801.55
2019-05-11T18:08:30.839Z,101797.13
2019-05-11T18:11:00.497Z,101795.45
2019-05-11T18:13:29.900Z,101795.47
2019-05-11T18:15:59.326Z,101801.41
2019-05-11T18:18:29.284Z,101808.32
2019-05-11T18:20:58.793Z,101821.95
2019-05-11T18:23:28.470Z,101825.98
2019-05-11T18:25:58.034Z,101834.98
2019-05-11T18:28:29.034Z,101833.84
2019-05-11T18:31:00.193Z,101839.78
2019-05-11T18:33:29.875Z,101840.66
2019-05-11T18:35:59.257Z,101846.50
2019-05-11T18:38:28.649Z,101848.81
2019-05-11T18:40:58.302Z,101846.50
2019-05-11T18:43:28.167Z,101868.65
2019-05-11T18:45:58.427Z,101862.41
2019-05-11T18:48:29.040Z,101871.48
2019-05-11T18:50:59.164Z,101859.88
2019-05-11T18:53:30.531Z,101878.19
2019-05-11T18:56:01.884Z,101881.64
2019-05-11T18:58:31.292Z,101886.31
2019-05-11T19:01:00.660Z,101891.47
2019-05-11T19:03:30.114Z,101899.00
2019-05-11T19:06:00.511Z,101906.61
2019-05-11T19:08:31.068Z,101913.47
2019-05-11T19:11:00.676Z,101919.17
2019-05-11T19:13:32.001Z,101920.73
2019-05-11T19:16:01.644Z,101918.46
2019-05-11T19:18:31.251Z,101940.64
2019-05-11T19:21:00.676Z,101954.09
2019-05-11T19:23:30.031Z,101966.48
2019-05-11T19:25:59.620Z,101966.90
2019-05-11T19:28:30.106Z,101983.02
2019-05-11T19:30:59.527Z,101984.20
2019-05-11T19:33:30.200Z,101992.09
2019-05-11T19:35:59.602Z,101999.52
2019-05-11T19:38:29.033Z,101998.49
2019-05-11T19:40:58.998Z,102002.78
2019-05-11T19:43:32.730Z,102009.69
2019-05-11T19:46:03.243Z,102013.63
2019-05-11T19:48:33.234Z,102012.39
2019-05-11T19:51:08.108Z,102013.02
2019-05-11T19:53:35.828Z,102019.55
2019-05-11T19:56:07.813Z,102037.00
2019-05-11T19:58:42.218Z,102040.39
2019-05-11T20:01:13.461Z,102040.11
2019-05-11T20:03:44.002Z,102038.69
2019-05-11T20:06:13.464Z,102046.84
2019-05-11T20:08:43.162Z,102051.09
2019-05-11T20:11:12.944Z,102049.79
2019-05-11T20:13:44.214Z,102053.55
2019-05-11T20:16:13.796Z,102058.05
2019-05-11T20:18:43.241Z,102056.11
2019-05-11T20:21:19.184Z,102067.80
2019-05-11T20:23:43.808Z,102059.96
2019-05-11T20:26:13.276Z,102065.23
2019-05-11T20:28:42.656Z,102066.36
2019-05-11T20:31:12.057Z,102076.00
2019-05-11T20:33:41.890Z,102077.22
2019-05-11T20:36:11.330Z,102079.63
2019-05-11T20:38:40.733Z,102082.13
2019-05-11T20:41:10.201Z,102080.63
2019-05-11T20:43:39.621Z,102091.70
2019-05-11T20:46:09.030Z,102091.39
2019-05-11T20:48:38.551Z,102097.87
2019-05-11T20:51:08.204Z,102107.27
2019-05-11T20:53:38.711Z,102109.69
2019-05-11T20:56:08.732Z,102116.19
2019-05-11T20:58:59.567Z,102113.88
2019-05-11T21:01:30.938Z,102118.34
2019-05-11T21:04:01.341Z,102118.20
2019-05-11T21:06:30.919Z,102120.48
2019-05-11T21:09:01.581Z,102134.74
2019-05-11T21:11:31.233Z,102128.84
2019-05-11T21:14:00.647Z,102132.39
2019-05-11T21:16:31.306Z,102137.38
2019-05-11T21:19:01.857Z,102144.78
2019-05-11T21:21:45.193Z,102148.13
2019-05-11T21:24:04.890Z,102156.83
2019-05-11T21:26:38.417Z,102156.53
2019-05-11T21:29:08.721Z,102160.31
2019-05-11T21:31:40.813Z,102157.42
2019-05-11T21:34:12.599Z,102153.95
2019-05-11T21:36:42.009Z,102159.78
2019-05-11T21:39:11.685Z,102158.38
2019-05-11T21:41:41.096Z,102165.95
2019-05-11T21:44:11.542Z,102172.30
2019-05-11T21:46:41.251Z,102176.17
2019-05-11T21:49:10.760Z,102180.59
2019-05-11T21:51:40.474Z,102189.97
2019-05-11T21:54:10.031Z,102194.39
2019-05-11T21:56:41.043Z,102194.20
2019-05-11T21:59:11.549Z,102205.69
2019-05-11T22:01:43.610Z,102202.09
2019-05-11T22:04:14.776Z,102207.19
2019-05-11T22:06:45.295Z,102211.70
2019-05-11T22:09:18.583Z,102209.09
2019-05-11T22:11:49.765Z,102223.15
2019-05-11T22:14:19.291Z,102217.42
2019-05-11T22:16:50.964Z,102218.97
2019-05-11T22:19:22.360Z,102220.88
2019-05-11T22:21:51.765Z,102225.75
2019-05-11T22:24:24.620Z,102229.02
2019-05-11T22:26:57.492Z,102242.25
2019-05-11T22:29:28.703Z,102240.55
2019-05-11T22:31:58.625Z,102244.69
2019-05-11T22:34:29.847Z,102247.62
2019-05-11T22:36:59.398Z,102250.94
2019-05-11T22:39:29.296Z,102259.27
2019-05-11T22:41:59.009Z,102268.30
2019-05-11T22:44:31.270Z,102270.66
2019-05-11T22:47:02.303Z,102274.25
2019-05-11T22:49:32.992Z,102272.23
2019-05-11T22:52:02.519Z,102274.27
2019-05-11T22:54:32.339Z,102277.76
2019-05-11T22:57:01.858Z,102284.32
2019-05-11T22:59:31.474Z,102289.56
2019-05-11T23:02:04.376Z,102292.55
2019-05-11T23:04:33.869Z,102293.34
2019-05-11T23:07:08.030Z,102290.53
2019-05-11T23:09:38.298Z,102291.53
2019-05-11T23:12:09.173Z,102295.66
2019-05-11T23:14:38.772Z,102301.98
2019-05-11T23:17:08.503Z,102297.98
2019-05-11T23:19:38.262Z,102307.55
2019-05-11T23:22:08.369Z,102311.22
2019-05-11T23:24:39.034Z,102312.83
2019-05-11T23:27:08.958Z,102320.88
2019-05-11T23:29:40.320Z,102318.44
2019-05-11T23:32:11.582Z,102318.88
2019-05-11T23:34:42.300Z,102325.84
2019-05-11T23:37:13.258Z,102325.30
2019-05-11T23:39:42.743Z,102328.17
2019-05-11T23:42:12.225Z,102333.39
2019-05-11T23:44:41.734Z,102333.54
2019-05-11T23:47:13.432Z,102339.80
2019-05-11T23:49:43.867Z,102342.02
2019-05-11T23:52:14.363Z,102340.69
2019-05-11T23:54:45.456Z,102347.88
2019-05-11T23:57:14.896Z,102350.20
2019-05-11T23:59:47.765Z,102351.98
